Benvolgut visitant, si us plau, ingressa Recuperar contrasenya
AVAMET paisatges
Union Alcoyana

Almenara Platja Casablanca

Dades diàries. Acumulats / Últims 30 dies disponibles

Data Temperatura (°C) Humitat rel. (%) Pressió rel. (hPa) Vent (km/h) Precipitació
Mínima Mitjana Màxima Amplitud
tèrmica
Mínima Mitjana Màxima Mínima Mitjana Màxima Predom. Mitjana Ràfega
màxima
Total
(mm)
Índex-n
Mínima Mitjana Màxima Mínima Mitjana Màxima n
0 a 1
P0 max
mm 5'
Dades mensuals acumulades fins l'últim dia disponible
12/2022 6,2 9,8 15,9 13,6 13,0 17,9 24,1 17,9 35 79 99 999 1.017 1.034   6,0 57,4 21,6
Dades anuals acumulades fins l'últim dia disponible
2022 1,3 13,9 26,6 18,0 9,9 21,5 38,5 37,2 19 76 99 999 1.019 1.037   8,4 81,4 712,8
Últims 30 dies disponibles
29-12-2022 8,5     14,9     20,1 11,6 44 56 82 1.022 1.023 1.025 OSO 7,6 24,1 0,0
28-12-2022 6,5     10,7     15,5 9,0 67 86 96 1.024 1.027 1.032 SO 4,3 33,3 0,0
27-12-2022 7,5     12,7     16,8 9,3 63 80 97 1.030 1.031 1.034 SSO 3,3 14,8 0,0
26-12-2022 9,3     13,5     18,0 8,7 55 76 94 1.024 1.027 1.031 SO 3,6 18,5 0,0
25-12-2022 9,2     16,1     24,1 14,9 35 65 94 1.020 1.022 1.025 SSO 6,9 31,5 0,0
24-12-2022 9,0     13,1     20,0 11,0 62 85 95 1.021 1.022 1.024 SSO 4,3 16,7 0,0
23-12-2022 11,9     16,9     23,9 12,0 50 70 89 1.022 1.024 1.026 SSO 4,2 22,2 0,0
22-12-2022 13,3     16,7     20,8 7,5 54 67 76 1.024 1.026 1.027 SSO 5,7 31,5 0,0
21-12-2022 10,8     16,3     22,2 11,4 46 67 90 1.022 1.024 1.026 SO 7,1 25,9 0,0
20-12-2022 6,2     10,6     15,6 9,4 72 88 95 1.022 1.025 1.029 SO 4,1 18,5 0,0
19-12-2022 8,7     11,8     16,0 7,3 75 87 93 1.028 1.030 1.031 SO 6,3 22,2 0,0
18-12-2022 7,1     11,1     15,8 8,7 79 89 96 1.026 1.029 1.031 SO 3,9 13,0 0,0
17-12-2022 7,8     11,4     15,5 7,7 71 82 95 1.015 1.020 1.026 SO 3,9 16,7 0,0
16-12-2022 8,7     13,9     19,7 11,0 47 68 88 1.004 1.009 1.015 SO 7,7 29,6 0,0
15-12-2022 12,5     14,9     19,0 6,5 56 75 95 999 1.001 1.005 SSO 5,2 25,9 0,8 0,26 0,30
14-12-2022 13,0     17,0     19,7 6,7 59 77 97 1.001 1.005 1.009 SSO 6,0 44,4 0,0
13-12-2022 15,9     18,7     21,6 5,7 64 82 99 1.002 1.005 1.008 S 6,8 37,0 5,6 0,08 0,30
12-12-2022 9,4     14,2     21,2 11,8 65 87 97 1.003 1.009 1.013 SO 7,7 57,4 0,0
11-12-2022 9,7     10,9     13,0 3,3 67 89 98 1.006 1.009 1.012 OSO 3,7 16,7 9,6 0,23 0,50
10-12-2022 9,9     14,2     19,6 9,7 46 70 87 1.001 1.007 1.012 OSO 6,8 31,5 0,0
09-12-2022 10,4     15,0     18,8 8,4 65 80 91 1.000 1.002 1.005 SSO 5,7 33,3 0,0
08-12-2022 10,2     12,6     15,6 5,4 88 93 98 1.004 1.008 1.013 SO 2,3 13,0 1,0
07-12-2022 11,3     13,8     16,6 5,3 87 93 97 1.013 1.015 1.018 SSO 3,2 14,8 0,0
06-12-2022 11,4     14,0     16,7 5,3 78 86 96 1.016 1.017 1.018 OSO 5,7 18,5 0,0
05-12-2022 10,6     13,1     14,8 4,2 72 81 92 1.017 1.018 1.020 OSO 8,0 25,9 0,0
04-12-2022 7,3     11,4     15,5 8,2 69 83 91 1.009 1.012 1.017 SO 5,5 20,4 0,0
03-12-2022 6,7     10,8     15,0 8,3 54 73 88 1.008 1.010 1.013 SO 6,3 25,9 0,0
02-12-2022 9,9     11,7     14,4 4,5 58 70 86 1.013 1.016 1.018 OSO 14,5 38,9 2,3
01-12-2022 10,3     12,9     14,8 4,5 63 79 90 1.016 1.017 1.019 SSO 14,7 42,6 2,3 0,37 0,80
30-11-2022 8,9     12,8     16,0 7,1 59 72 89 1.017 1.018 1.020 SO 5,1 13,0 0,0
Últims 13 mesos disponibles
12/2022 6,2 9,8 15,9 13,6 13,0 17,9 24,1 17,9 56 79 93 1.001 1.017 1.031 SO 6,0 57,4 21,6
11/2022 6,6 12,0 18,9 16,0 16,0 20,1 24,8 18,2 46 63 74 1.008 1.017 1.030 5,1 72,2 115,6
10/2022 13,4 16,4 19,6 20,2 21,5 23,9 28,4 15,0 59 84 94 1.017 1.022 1.027 SSO 5,7 55,5 72,8
09/2022 14,4 19,5 22,2 23,5 20,3 26,8 31,5 17,1 44 74 94 1.005 1.015 1.020 S 6,4 48,1 36,6
08/2022 17,6 22,3 26,6 26,7 26,7 30,1 38,5 20,9 44 74 83 1.009 1.015 1.020 S 7,6 74,0 11,4
07/2022 19,0 22,1 25,5 26,3 26,5 28,9 30,4 11,4 62 75 85 1.014 1.019 1.023 SSE 5,8 50,0 2,5
06/2022 16,6 19,2 22,3 23,8 23,2 26,9 32,0 15,4 56 77 86 1.011 1.016 1.022 SSE 7,6 55,5 4,6
05/2022 11,6 14,5 18,4 18,9 16,4 21,7 27,6 16,0 67 78 94 1.008 1.019 1.026 SSE 7,9 57,4 143,5
04/2022 3,0 10,6 13,8 14,5 10,7 18,1 27,5 24,5 35 70 96 1.004 1.015 1.025 SSO 9,3 81,4 87,1
03/2022 5,4 9,9 14,2 12,4 11,4 14,8 22,1 16,7 61 84 97 1.003 1.020 1.027 SSO 14,1 74,0 186,9
02/2022 3,5 7,6 11,3 11,8 13,5 15,8 23,6 20,1 42 73 91 1.018 1.026 1.033 SSO 7,0 53,7 13,7
01/2022 1,3 5,2 13,3 9,8 9,9 14,4 24,3 23,0 41 71 94 1.013 1.028 1.035 SO 7,9 66,6 16,5
12/2021 4,3 9,0 14,8 13,2 13,8 17,6 24,3 20,0 47 70 91 1.009 1.021 1.031 SO 8,2 74,0 1,3
Tots els anys disponibles
2022 1,3 13,9 26,6 18,0 9,9 21,5 38,5 37,2 35 76 97 1.001 1.019 1.035 SSO 7,5 81,4 712,8
2021 4,3 17,2 34,8 30,5 62 75 81 1.016 1.018 1.021 OSO 8,3 92,5 430,9
2019 2,2 13,0 25,6 17,1 10,8 20,9 35,1 32,9 22 67 95 560 1.003 1.031 N 6,3 67,0 285,7
2018 1,3 10,3 20,4 17,3 18,0 25,2 34,2 32,9 55 67 76 1.004 1.013 1.021 8,5 68,0 365,1
2017 0,0 12,0 26,0 15,8 9,0 19,8 33,4 33,4 24 67 92 972 1.014 1.033 S 0,1 89,0 253,6
2016 3,9 14,9 24,7 18,3 9,4 21,9 32,4 28,5 37 71 91 1.000 1.016 1.034 79,0 308,6
Temperatura (°C)
Humitat relativa (%)
Velocitat del vent i ràfega màxima (km/h)
Direcció del vent (°)
Pressió (hPa)
Precipitació (mm)
Nota sobre les dades: s'avisa a l'usuari de la provisionalitat i no oficialitat d'aquestes dades
Logo AVAMET blanc
Web allotjada a Sollutia
Llicència de Creative CommonsLa web d'AVAMET i els seus continguts estan subjectes a una llicència de
Reconeixement - No Comercial - Compartir igual
Avís legal - Política de privacitat - Política de cookies
NOVES ESTACIONS: Villar del Arzobispo - Casica Roger (Ajuntament/Soci), Villar del Arzobispo (Ajuntament/Soci), Castelló de la Plana - Carrer Riu Xúquer (Soci), Formentera del Segura (Soci), Benissa (Ajuntament/Soci), Favara (Ajuntament/Soci), Ayora - Polígono (Soci), Villena - la Boquera (Soci), Ibi - IES la Foia (Soci), Vallada - Molí de Baix (Soci), Morella - Mas d'Agustino (Soci), Almassora (Ajuntament/Soci), Carcaixent (Ajuntament/Soci), l'Eliana - Pinaeta del Cel (Soci), Fuentes de Ayódar (Ajuntament/Soci), Quatretonda - sud-est (Soci), València - el Saler (Platja de la Garrofera) (Soci), la Vall de GallineraBenialí (Ajuntament/Soci), Torrevieja (Institut Cartogràfic Valencià) - - -